createdAt,value
2022-12-17T00:01:50.688Z,89.30
2022-12-17T00:04:37.205Z,89.82
2022-12-17T00:07:22.443Z,90.05
2022-12-17T00:10:07.554Z,90.12
2022-12-17T00:12:52.558Z,89.16
2022-12-17T00:15:41.708Z,89.32
2022-12-17T00:18:26.744Z,89.21
2022-12-17T00:21:12.990Z,89.22
2022-12-17T00:23:58.175Z,90.10
2022-12-17T00:26:43.791Z,90.88
2022-12-17T00:29:29.646Z,90.67
2022-12-17T00:32:14.710Z,90.08
2022-12-17T00:34:59.842Z,89.41
2022-12-17T00:37:44.937Z,89.25
2022-12-17T00:40:30.440Z,88.95
2022-12-17T00:43:23.205Z,89.10
2022-12-17T00:46:08.958Z,88.91
2022-12-17T00:48:53.990Z,88.69
2022-12-17T00:51:42.262Z,88.40
2022-12-17T00:54:28.000Z,88.10
2022-12-17T00:57:13.543Z,88.51
2022-12-17T00:59:59.120Z,88.47
2022-12-17T01:02:44.738Z,88.39
2022-12-17T01:05:30.299Z,88.51
2022-12-17T01:08:15.872Z,88.50
2022-12-17T01:11:01.477Z,88.33
2022-12-17T01:13:46.554Z,87.83
2022-12-17T01:16:33.136Z,87.87
2022-12-17T01:19:18.901Z,87.24
2022-12-17T01:22:04.571Z,87.20
2022-12-17T01:24:49.746Z,87.53
2022-12-17T01:27:36.082Z,87.43
2022-12-17T01:30:21.225Z,87.07
2022-12-17T01:33:06.429Z,87.09
2022-12-17T01:35:51.672Z,86.91
2022-12-17T01:38:38.260Z,86.87
2022-12-17T01:41:24.366Z,87.01
2022-12-17T01:44:09.462Z,86.89
2022-12-17T01:46:56.131Z,86.93
2022-12-17T01:49:43.804Z,86.76
2022-12-17T01:52:30.149Z,86.80
2022-12-17T01:55:15.709Z,87.22
2022-12-17T01:58:06.523Z,87.11
2022-12-17T02:00:51.639Z,86.91
2022-12-17T02:03:37.616Z,87.18
2022-12-17T02:06:40.931Z,87.02
2022-12-17T02:09:30.903Z,87.01
2022-12-17T02:12:21.767Z,86.86
2022-12-17T02:15:13.021Z,86.00
2022-12-17T02:18:06.749Z,85.79
2022-12-17T02:20:57.453Z,85.74
2022-12-17T02:23:57.652Z,85.86
2022-12-17T02:26:48.919Z,85.92
2022-12-17T02:29:34.605Z,85.67
2022-12-17T02:32:20.724Z,85.67
2022-12-17T02:35:06.211Z,85.92
2022-12-17T02:37:51.847Z,85.10
2022-12-17T02:40:38.802Z,85.13
2022-12-17T02:43:24.866Z,84.53
2022-12-17T02:46:10.094Z,84.53
2022-12-17T02:48:55.542Z,84.83
2022-12-17T02:51:41.234Z,84.91
2022-12-17T02:54:26.876Z,85.02
2022-12-17T02:57:12.436Z,85.04
2022-12-17T02:59:58.078Z,84.78
2022-12-17T03:02:43.248Z,85.21
2022-12-17T03:05:44.614Z,85.32
2022-12-17T03:08:30.826Z,85.73
2022-12-17T03:11:16.044Z,85.60
2022-12-17T03:14:01.193Z,85.85
2022-12-17T03:16:46.427Z,85.60
2022-12-17T03:19:31.523Z,84.85
2022-12-17T03:22:16.590Z,84.24
2022-12-17T03:25:01.822Z,85.60
2022-12-17T03:27:49.277Z,86.16
2022-12-17T03:30:36.415Z,86.23
2022-12-17T03:33:22.467Z,87.25
2022-12-17T03:36:07.538Z,86.27
2022-12-17T03:38:52.594Z,85.87
2022-12-17T03:41:37.817Z,86.36
2022-12-17T03:44:22.934Z,87.38
2022-12-17T03:47:08.240Z,86.03
2022-12-17T03:49:53.222Z,85.84
2022-12-17T03:52:38.176Z,87.15
2022-12-17T03:55:23.945Z,87.11
2022-12-17T03:58:09.023Z,86.71
2022-12-17T04:00:54.260Z,86.44
2022-12-17T04:03:39.908Z,86.50
2022-12-17T04:06:25.568Z,86.65
2022-12-17T04:09:10.592Z,86.56
2022-12-17T04:11:56.226Z,87.13
2022-12-17T04:14:54.933Z,87.01
2022-12-17T04:17:46.241Z,86.35
2022-12-17T04:20:31.641Z,86.37
2022-12-17T04:23:17.038Z,86.49
2022-12-17T04:26:02.169Z,85.80
2022-12-17T04:28:47.345Z,85.10
2022-12-17T04:31:32.411Z,84.65
2022-12-17T04:34:17.624Z,84.77
2022-12-17T04:37:02.613Z,83.71
2022-12-17T04:39:47.736Z,83.24
2022-12-17T04:42:32.782Z,83.14
2022-12-17T04:45:17.983Z,83.31
2022-12-17T04:48:05.263Z,83.06
2022-12-17T04:50:50.270Z,83.38
2022-12-17T04:53:35.915Z,83.18
2022-12-17T04:56:21.636Z,83.55
2022-12-17T04:59:06.820Z,84.66
2022-12-17T05:01:52.094Z,84.78
2022-12-17T05:04:37.387Z,83.79
2022-12-17T05:07:22.498Z,84.57
2022-12-17T05:10:07.538Z,85.36
2022-12-17T05:12:52.666Z,84.62
2022-12-17T05:15:37.886Z,85.14
2022-12-17T05:18:23.897Z,85.98
2022-12-17T05:21:10.540Z,85.62
2022-12-17T05:23:55.541Z,84.79
2022-12-17T05:26:42.222Z,84.26
2022-12-17T05:29:27.281Z,83.20
2022-12-17T05:32:12.808Z,83.22
2022-12-17T05:34:58.421Z,82.61
2022-12-17T05:37:43.616Z,83.25
2022-12-17T05:40:29.288Z,83.05
2022-12-17T05:43:15.521Z,83.58
2022-12-17T05:46:01.109Z,83.91
2022-12-17T05:48:46.572Z,84.77
2022-12-17T05:51:35.730Z,84.27
2022-12-17T05:54:23.631Z,84.87
2022-12-17T05:57:09.156Z,84.32
2022-12-17T05:59:54.190Z,83.72
2022-12-17T06:02:39.416Z,82.84
2022-12-17T06:05:25.018Z,82.85
2022-12-17T06:08:10.118Z,83.10
2022-12-17T06:10:55.744Z,83.01
2022-12-17T06:13:40.920Z,82.91
2022-12-17T06:16:26.545Z,82.03
2022-12-17T06:19:11.863Z,81.83
2022-12-17T06:21:57.412Z,81.50
2022-12-17T06:24:45.959Z,81.50
2022-12-17T06:27:31.727Z,81.37
2022-12-17T06:30:18.888Z,81.44
2022-12-17T06:33:04.405Z,81.37
2022-12-17T06:36:03.250Z,81.46
2022-12-17T06:38:48.440Z,81.32
2022-12-17T06:41:33.508Z,81.35
2022-12-17T06:44:18.534Z,81.31
2022-12-17T06:47:03.740Z,81.40
2022-12-17T06:49:48.827Z,81.35
2022-12-17T06:52:34.057Z,81.66
2022-12-17T06:55:19.062Z,81.32
2022-12-17T06:58:14.409Z,81.93
2022-12-17T07:00:59.503Z,82.12
2022-12-17T07:03:44.901Z,81.94
2022-12-17T07:06:29.943Z,82.00
2022-12-17T07:09:15.054Z,81.34
2022-12-17T07:12:00.255Z,81.63
2022-12-17T07:14:45.485Z,81.87
2022-12-17T07:17:30.565Z,81.93
2022-12-17T07:20:15.783Z,81.90
2022-12-17T07:23:01.027Z,82.44
2022-12-17T07:25:46.621Z,82.98
2022-12-17T07:28:31.816Z,83.19
2022-12-17T07:31:17.026Z,83.15
2022-12-17T07:34:05.907Z,83.32
2022-12-17T07:36:50.853Z,83.43
2022-12-17T07:39:36.489Z,83.65
2022-12-17T07:42:21.604Z,83.31
2022-12-17T07:45:06.820Z,83.22
2022-12-17T07:47:51.781Z,83.26
2022-12-17T07:50:36.914Z,83.57
2022-12-17T07:53:23.000Z,83.33
2022-12-17T07:56:08.079Z,83.16
2022-12-17T07:58:54.683Z,83.31
2022-12-17T08:01:39.932Z,83.55
2022-12-17T08:04:25.409Z,83.79
2022-12-17T08:07:14.003Z,83.87
2022-12-17T08:09:59.334Z,83.74
2022-12-17T08:12:44.393Z,83.65
2022-12-17T08:15:29.608Z,83.18
2022-12-17T08:18:26.787Z,83.11
2022-12-17T08:21:12.835Z,83.45
2022-12-17T08:23:58.467Z,83.42
2022-12-17T08:26:47.811Z,83.64
2022-12-17T08:29:33.454Z,83.48
2022-12-17T08:32:23.002Z,83.79
2022-12-17T08:35:08.266Z,84.04
2022-12-17T08:37:59.459Z,83.84
2022-12-17T08:40:44.948Z,84.22
2022-12-17T08:43:30.069Z,84.26
2022-12-17T08:46:15.174Z,84.13
2022-12-17T08:49:00.310Z,84.09
2022-12-17T08:51:45.456Z,84.13
2022-12-17T08:54:31.081Z,84.73
2022-12-17T08:57:27.076Z,84.88
2022-12-17T09:00:16.084Z,85.27
2022-12-17T09:03:01.413Z,85.21
2022-12-17T09:05:46.845Z,85.14
2022-12-17T09:08:32.108Z,85.11
2022-12-17T09:11:20.393Z,84.97
2022-12-17T09:14:05.511Z,85.05
2022-12-17T09:16:52.156Z,84.60
2022-12-17T09:19:37.307Z,84.27
2022-12-17T09:22:22.305Z,84.59
2022-12-17T09:25:07.737Z,84.55
2022-12-17T09:27:53.294Z,84.54
2022-12-17T09:30:38.535Z,84.55
2022-12-17T09:33:24.129Z,84.22
2022-12-17T09:36:09.335Z,84.24
2022-12-17T09:38:55.011Z,83.97
2022-12-17T09:41:40.033Z,83.57
2022-12-17T09:44:30.085Z,83.61
2022-12-17T09:47:21.324Z,83.65
2022-12-17T09:50:06.962Z,83.53
2022-12-17T09:52:55.613Z,83.54
2022-12-17T09:55:43.830Z,83.80
2022-12-17T09:58:42.833Z,83.33
2022-12-17T10:01:39.605Z,83.41
2022-12-17T10:04:29.519Z,83.97
2022-12-17T10:07:14.586Z,83.97
2022-12-17T10:10:00.732Z,84.30
2022-12-17T10:12:46.534Z,84.04
2022-12-17T10:15:34.604Z,84.44
2022-12-17T10:18:27.825Z,84.32
2022-12-17T10:21:27.580Z,84.40
2022-12-17T10:24:23.196Z,84.10
2022-12-17T10:27:08.338Z,84.12
2022-12-17T10:29:53.778Z,84.53
2022-12-17T10:32:41.490Z,84.93
2022-12-17T10:35:36.139Z,84.96
2022-12-17T10:38:28.863Z,84.27
2022-12-17T10:41:14.538Z,84.26
2022-12-17T10:44:00.613Z,84.83
2022-12-17T10:46:50.493Z,84.24
2022-12-17T10:49:40.151Z,84.37
2022-12-17T10:52:34.782Z,84.19
2022-12-17T10:55:21.775Z,83.52
2022-12-17T10:58:11.355Z,83.51
2022-12-17T11:00:58.202Z,83.29
2022-12-17T11:03:55.655Z,83.08
2022-12-17T11:06:46.362Z,82.61
2022-12-17T11:09:55.081Z,83.05
2022-12-17T11:12:43.313Z,83.46
2022-12-17T11:15:37.044Z,83.24
2022-12-17T11:18:23.754Z,82.48
2022-12-17T11:21:20.926Z,82.58
2022-12-17T11:24:08.238Z,82.52
2022-12-17T11:26:55.214Z,82.57
2022-12-17T11:29:40.159Z,82.17
2022-12-17T11:32:31.543Z,81.83
2022-12-17T11:35:32.854Z,81.27
2022-12-17T11:38:17.922Z,80.92
2022-12-17T11:41:06.536Z,80.50
2022-12-17T11:44:10.599Z,80.99
2022-12-17T11:47:02.752Z,80.97
2022-12-17T11:49:47.796Z,81.50
2022-12-17T11:52:32.857Z,81.70
2022-12-17T11:55:23.506Z,81.25
2022-12-17T11:58:10.138Z,80.79
2022-12-17T12:01:01.834Z,80.58
2022-12-17T12:04:13.338Z,80.66
2022-12-17T12:07:10.831Z,80.33
2022-12-17T12:10:08.280Z,80.38
2022-12-17T12:13:03.615Z,80.09
2022-12-17T12:15:48.715Z,80.26
2022-12-17T12:18:39.338Z,80.37
2022-12-17T12:21:34.601Z,80.74
2022-12-17T12:24:22.855Z,80.86
2022-12-17T12:27:11.167Z,80.72
2022-12-17T12:30:21.904Z,79.82
2022-12-17T12:33:13.300Z,79.41
2022-12-17T12:35:59.477Z,79.12
2022-12-17T12:38:51.131Z,78.69
2022-12-17T12:41:39.248Z,78.82
2022-12-17T12:44:31.753Z,78.91
2022-12-17T12:47:24.948Z,77.99
2022-12-17T12:50:29.058Z,77.80
2022-12-17T12:53:15.731Z,77.84
2022-12-17T12:56:02.052Z,78.35
2022-12-17T12:58:48.595Z,79.06
2022-12-17T13:01:34.259Z,79.39
2022-12-17T13:04:21.269Z,79.72
2022-12-17T13:06:54.465Z,79.38
2022-12-17T13:09:33.847Z,78.70
2022-12-17T13:12:04.527Z,79.19
2022-12-17T13:14:36.720Z,79.39
2022-12-17T13:17:16.163Z,78.87
2022-12-17T13:19:43.274Z,79.24
2022-12-17T13:22:29.454Z,79.99
2022-12-17T13:25:16.374Z,80.13
2022-12-17T13:27:53.333Z,79.38
2022-12-17T13:30:21.678Z,80.02
2022-12-17T13:32:48.335Z,80.32
2022-12-17T13:35:30.722Z,80.62
2022-12-17T13:38:05.875Z,79.61
2022-12-17T13:40:38.672Z,80.05
2022-12-17T13:43:05.532Z,80.10
2022-12-17T13:45:37.286Z,80.18
2022-12-17T13:48:04.019Z,80.04
2022-12-17T13:50:35.469Z,79.58
2022-12-17T13:53:10.326Z,79.60
2022-12-17T13:55:38.271Z,79.79
2022-12-17T13:58:04.917Z,79.72
2022-12-17T14:00:32.747Z,80.22
2022-12-17T14:03:09.251Z,80.74
2022-12-17T14:05:38.384Z,80.77
2022-12-17T14:08:05.632Z,80.17
2022-12-17T14:10:32.494Z,80.14
2022-12-17T14:13:03.934Z,80.16
2022-12-17T14:15:32.095Z,80.29
2022-12-17T14:17:59.512Z,80.58
2022-12-17T14:20:29.585Z,80.07
2022-12-17T14:22:59.996Z,80.11
2022-12-17T14:25:29.963Z,80.44
2022-12-17T14:28:01.132Z,80.62
2022-12-17T14:30:42.876Z,80.68
2022-12-17T14:33:29.967Z,80.21
2022-12-17T14:35:57.515Z,80.44
2022-12-17T14:38:37.416Z,80.76
2022-12-17T14:41:33.304Z,80.51
2022-12-17T14:44:00.740Z,80.80
2022-12-17T14:46:28.657Z,81.21
2022-12-17T14:49:02.576Z,80.46
2022-12-17T14:51:32.226Z,80.72
2022-12-17T14:54:13.784Z,80.50
2022-12-17T14:56:41.231Z,80.59
2022-12-17T14:59:24.423Z,80.52
2022-12-17T15:01:55.960Z,80.16
2022-12-17T15:04:23.429Z,79.99
2022-12-17T15:06:51.009Z,80.52
2022-12-17T15:09:17.643Z,80.37
2022-12-17T15:11:44.247Z,80.48
2022-12-17T15:14:10.860Z,80.95
2022-12-17T15:16:37.673Z,80.84
2022-12-17T15:19:04.500Z,80.52
2022-12-17T15:21:31.906Z,81.39
2022-12-17T15:23:58.625Z,81.98
2022-12-17T15:26:25.544Z,82.16
2022-12-17T15:28:52.270Z,82.13
2022-12-17T15:31:24.452Z,82.04
2022-12-17T15:33:52.029Z,82.02
2022-12-17T15:36:18.647Z,82.25
2022-12-17T15:38:46.510Z,82.12
2022-12-17T15:41:31.702Z,82.06
2022-12-17T15:43:58.373Z,81.90
2022-12-17T15:46:25.294Z,81.87
2022-12-17T15:48:52.023Z,82.39
2022-12-17T15:51:21.250Z,82.70
2022-12-17T15:53:48.520Z,83.04
2022-12-17T15:56:19.119Z,82.95
2022-12-17T15:58:46.004Z,83.24
2022-12-17T16:01:13.342Z,83.68
2022-12-17T16:03:40.422Z,83.61
2022-12-17T16:06:07.579Z,84.10
2022-12-17T16:08:35.018Z,84.01
2022-12-17T16:11:06.188Z,84.13
2022-12-17T16:13:33.061Z,84.09
2022-12-17T16:16:03.815Z,84.29
2022-12-17T16:18:31.405Z,84.32
2022-12-17T16:21:03.144Z,83.99
2022-12-17T16:23:30.015Z,83.80
2022-12-17T16:25:58.300Z,83.68
2022-12-17T16:28:25.665Z,83.70
2022-12-17T16:31:00.281Z,83.82
2022-12-17T16:33:32.515Z,83.82
2022-12-17T16:36:02.552Z,84.06
2022-12-17T16:38:29.642Z,84.11
2022-12-17T16:40:57.419Z,83.94
2022-12-17T16:43:24.691Z,84.27
2022-12-17T16:45:53.274Z,84.13
2022-12-17T16:48:21.293Z,84.16
2022-12-17T16:50:49.401Z,84.61
2022-12-17T16:53:17.494Z,84.94
2022-12-17T16:55:45.401Z,85.01
2022-12-17T16:58:12.792Z,85.26
2022-12-17T17:00:39.838Z,85.12
2022-12-17T17:03:07.587Z,85.02
2022-12-17T17:05:36.290Z,84.78
2022-12-17T17:08:03.234Z,84.55
2022-12-17T17:10:30.312Z,84.38
2022-12-17T17:12:57.380Z,83.91
2022-12-17T17:15:24.369Z,83.76
2022-12-17T17:17:54.375Z,83.26
2022-12-17T17:20:23.522Z,82.79
2022-12-17T17:22:50.433Z,82.48
2022-12-17T17:25:17.365Z,82.66
2022-12-17T17:27:44.902Z,82.33
2022-12-17T17:30:12.159Z,82.07
2022-12-17T17:32:39.097Z,81.96
2022-12-17T17:35:06.416Z,81.97
2022-12-17T17:37:33.347Z,81.43
2022-12-17T17:40:00.284Z,81.38
2022-12-17T17:42:27.110Z,80.67
2022-12-17T17:44:54.000Z,80.30
2022-12-17T17:47:20.821Z,79.94
2022-12-17T17:49:47.696Z,80.03
2022-12-17T17:52:15.721Z,79.83
2022-12-17T17:54:42.788Z,79.31
2022-12-17T17:57:10.334Z,78.57
2022-12-17T17:59:39.814Z,78.83
2022-12-17T18:02:07.493Z,78.78
2022-12-17T18:04:34.540Z,78.60
2022-12-17T18:07:25.200Z,78.19
2022-12-17T18:09:48.300Z,77.58
2022-12-17T18:12:18.200Z,77.00
2022-12-17T18:15:12.056Z,76.64
2022-12-17T18:17:31.984Z,76.50
2022-12-17T18:19:58.872Z,76.10
2022-12-17T18:22:25.999Z,76.11
2022-12-17T18:24:52.820Z,75.42
2022-12-17T18:27:19.647Z,74.75
2022-12-17T18:29:46.529Z,74.29
2022-12-17T18:32:13.381Z,74.22
2022-12-17T18:34:40.663Z,74.47
2022-12-17T18:37:07.573Z,74.54
2022-12-17T18:39:34.635Z,74.71
2022-12-17T18:42:04.722Z,74.49
2022-12-17T18:44:32.534Z,74.31
2022-12-17T18:46:59.694Z,74.13
2022-12-17T18:49:26.958Z,74.33
2022-12-17T18:51:54.430Z,73.84
2022-12-17T18:54:23.101Z,73.46
2022-12-17T18:57:01.073Z,73.61
2022-12-17T18:59:29.548Z,73.96
2022-12-17T19:01:56.925Z,74.21
2022-12-17T19:04:24.309Z,73.99
2022-12-17T19:06:53.799Z,73.89
2022-12-17T19:09:23.432Z,73.36
2022-12-17T19:11:50.682Z,73.42
2022-12-17T19:14:18.229Z,73.47
2022-12-17T19:16:45.552Z,73.68
2022-12-17T19:19:13.746Z,73.48
2022-12-17T19:21:40.979Z,72.75
2022-12-17T19:24:09.032Z,73.57
2022-12-17T19:26:35.908Z,73.95
2022-12-17T19:29:02.789Z,73.38
2022-12-17T19:31:31.163Z,73.44
2022-12-17T19:33:58.955Z,73.58
2022-12-17T19:36:28.637Z,73.63
2022-12-17T19:38:56.788Z,74.00
2022-12-17T19:41:24.208Z,73.94
2022-12-17T19:43:54.235Z,74.22
2022-12-17T19:46:21.137Z,73.43
2022-12-17T19:48:49.120Z,73.60
2022-12-17T19:51:17.674Z,73.30
2022-12-17T19:53:45.168Z,73.27
2022-12-17T19:59:31.440Z,73.31
2022-12-17T20:01:58.621Z,73.60
2022-12-17T20:04:25.548Z,73.96
2022-12-17T20:06:52.420Z,74.89
2022-12-17T20:09:19.401Z,75.13
2022-12-17T20:11:46.249Z,75.25
2022-12-17T20:14:13.572Z,75.13
2022-12-17T20:16:41.878Z,75.03
2022-12-17T20:19:11.333Z,75.47
2022-12-17T20:21:38.906Z,76.20
2022-12-17T20:24:05.965Z,76.50
2022-12-17T20:26:33.006Z,76.67
2022-12-17T20:28:59.868Z,76.92
2022-12-17T20:31:27.497Z,76.82
2022-12-17T20:33:54.427Z,77.46
2022-12-17T20:36:21.798Z,77.06
2022-12-17T20:38:49.776Z,77.07
2022-12-17T20:41:18.509Z,77.85
2022-12-17T20:43:45.375Z,78.00
2022-12-17T20:46:12.436Z,79.34
2022-12-17T20:48:40.914Z,79.50
2022-12-17T20:51:10.300Z,78.78
2022-12-17T20:53:37.681Z,78.93
2022-12-17T20:56:07.917Z,79.03
2022-12-17T20:58:34.866Z,79.43
2022-12-17T21:01:03.805Z,79.54
2022-12-17T21:03:32.664Z,79.65
2022-12-17T21:06:11.191Z,79.33
2022-12-17T21:08:40.467Z,79.29
2022-12-17T21:11:10.645Z,79.90
2022-12-17T21:13:37.768Z,80.20
2022-12-17T21:16:06.470Z,80.42
2022-12-17T21:18:33.838Z,80.21
2022-12-17T21:21:02.586Z,81.10
2022-12-17T21:23:30.177Z,80.91
2022-12-17T21:25:58.224Z,80.93
2022-12-17T21:28:25.772Z,80.95
2022-12-17T21:30:52.672Z,81.51
2022-12-17T21:33:19.553Z,80.57
2022-12-17T21:35:46.409Z,80.23
2022-12-17T21:38:13.292Z,80.45
2022-12-17T21:40:40.309Z,81.20
2022-12-17T21:43:07.131Z,82.14
2022-12-17T21:45:35.667Z,82.08
2022-12-17T21:48:03.009Z,82.23
2022-12-17T21:50:31.083Z,82.74
2022-12-17T21:52:58.049Z,83.42
2022-12-17T21:55:25.220Z,83.81
2022-12-17T21:57:52.093Z,83.25
2022-12-17T22:00:19.227Z,83.12
2022-12-17T22:02:46.218Z,84.35
2022-12-17T22:05:17.712Z,84.43
2022-12-17T22:07:48.784Z,84.69
2022-12-17T22:10:38.279Z,84.49
2022-12-17T22:13:06.575Z,84.80
2022-12-17T22:15:39.069Z,84.45
2022-12-17T22:18:14.765Z,84.65
2022-12-17T22:20:41.613Z,84.48
2022-12-17T22:23:08.455Z,84.55
2022-12-17T22:25:36.828Z,84.87
2022-12-17T22:28:04.187Z,85.61
2022-12-17T22:30:34.262Z,85.76
2022-12-17T22:33:11.645Z,85.60
2022-12-17T22:36:55.489Z,86.05
2022-12-17T22:43:33.259Z,86.70
2022-12-17T22:44:34.012Z,87.50
2022-12-17T22:44:43.671Z,87.27
2022-12-17T22:47:01.612Z,87.65
2022-12-17T22:49:28.640Z,87.78
2022-12-17T22:51:55.534Z,87.37
2022-12-17T22:54:22.402Z,87.74
2022-12-17T22:57:27.997Z,87.45
2022-12-17T22:59:36.453Z,87.00
2022-12-17T23:02:03.480Z,87.22
2022-12-17T23:04:30.428Z,86.81
2022-12-17T23:06:57.324Z,87.31
2022-12-17T23:09:24.350Z,87.44
2022-12-17T23:11:51.230Z,87.73
2022-12-17T23:14:18.610Z,87.54
2022-12-17T23:16:45.729Z,87.68
2022-12-17T23:19:14.028Z,88.08
2022-12-17T23:21:40.930Z,88.22
2022-12-17T23:24:08.190Z,87.96
2022-12-17T23:26:36.100Z,87.89
2022-12-17T23:29:05.189Z,87.75
2022-12-17T23:31:33.612Z,87.86
2022-12-17T23:34:00.482Z,87.57
2022-12-17T23:36:27.622Z,88.13
2022-12-17T23:39:28.358Z,88.28
2022-12-17T23:41:55.455Z,88.80
2022-12-17T23:44:22.389Z,88.93
2022-12-17T23:46:49.368Z,88.92
2022-12-17T23:49:16.193Z,88.46
2022-12-17T23:51:43.361Z,87.98
2022-12-17T23:54:10.193Z,87.75
2022-12-17T23:56:37.220Z,87.84
2022-12-17T23:59:04.149Z,88.04
